Time;durP1;ratioP1;P1;durP2;ratioP2;P2;SDS_P1;SDS_P2;PMS_P1;PMS_P2;Temp;Humidity;BMP_temperature;BMP_pressure;BME280_temperature;BME280_humidity;BME280_pressure;Samples;Min_cycle;Max_cycle;Signal;HPM_P1;HPM_P2
2023/09/27 00:00:11;;;;;;;13.63;12.43;;;15.40;99.90;;;;;;5053346;28;20552;-63
2023/09/27 00:02:40;;;;;;;14.53;13.37;;;15.40;99.90;;;;;;5050220;28;20478;-63
2023/09/27 00:05:10;;;;;;;13.63;12.43;;;15.40;99.90;;;;;;5045638;28;20584;-63
2023/09/27 00:07:40;;;;;;;13.80;12.70;;;15.40;99.90;;;;;;5054799;28;20467;-63
2023/09/27 00:10:11;;;;;;;14.83;13.63;;;15.40;99.90;;;;;;5054419;28;20524;-63
2023/09/27 00:12:41;;;;;;;15.60;14.33;;;15.40;99.90;;;;;;5051752;28;20546;-63
2023/09/27 00:15:11;;;;;;;15.87;14.40;;;15.50;99.90;;;;;;5048750;28;20628;-63
2023/09/27 00:17:40;;;;;;;16.13;14.53;;;15.50;99.90;;;;;;5054158;28;20575;-63
2023/09/27 00:20:12;;;;;;;14.07;12.97;;;15.50;99.90;;;;;;5052406;28;20857;-63
2023/09/27 00:22:40;;;;;;;14.40;13.30;;;15.50;99.90;;;;;;5050615;28;21572;-63
2023/09/27 00:25:11;;;;;;;14.33;13.13;;;15.50;99.90;;;;;;5047587;28;20563;-63
2023/09/27 00:27:41;;;;;;;14.10;12.80;;;15.50;99.90;;;;;;5049681;28;20473;-63
2023/09/27 00:30:13;;;;;;;14.43;12.87;;;15.40;99.90;;;;;;5049470;28;20830;-64
2023/09/27 00:32:41;;;;;;;13.73;12.63;;;15.40;99.90;;;;;;5052033;28;20989;-63
2023/09/27 00:35:14;;;;;;;14.60;13.40;;;15.30;99.90;;;;;;5050977;28;20494;-63
2023/09/27 00:37:42;;;;;;;14.80;13.60;;;15.30;99.90;;;;;;5050216;28;20521;-63
2023/09/27 00:40:14;;;;;;;14.00;12.80;;;15.30;99.90;;;;;;5058413;28;20535;-63
2023/09/27 00:42:44;;;;;;;13.80;12.60;;;15.30;99.90;;;;;;5054439;28;20566;-63
2023/09/27 00:45:11;;;;;;;13.93;12.80;;;15.30;99.90;;;;;;5054258;28;20592;-63
2023/09/27 00:47:40;;;;;;;15.27;13.87;;;15.30;99.90;;;;;;5059633;28;20546;-63
2023/09/27 00:50:09;;;;;;;15.40;14.20;;;15.30;99.90;;;;;;5056270;28;20556;-63
2023/09/27 00:52:40;;;;;;;14.70;13.50;;;15.30;99.90;;;;;;5053289;28;20466;-63
2023/09/27 00:55:10;;;;;;;16.10;14.70;;;15.30;99.90;;;;;;5054631;28;20522;-63
2023/09/27 00:57:39;;;;;;;15.03;13.73;;;15.30;99.90;;;;;;5057828;28;20579;-63
2023/09/27 01:00:11;;;;;;;14.63;13.43;;;15.30;99.90;;;;;;5054262;28;20559;-63
2023/09/27 01:02:40;;;;;;;16.47;15.00;;;15.20;99.90;;;;;;5051990;28;20534;-63
2023/09/27 01:05:09;;;;;;;17.80;16.20;;;15.20;99.90;;;;;;5055715;28;20497;-63
2023/09/27 01:07:40;;;;;;;16.30;14.90;;;15.20;99.90;;;;;;5055302;28;20969;-63
2023/09/27 01:10:09;;;;;;;17.70;16.20;;;15.20;99.90;;;;;;5055790;28;20550;-64
2023/09/27 01:12:38;;;;;;;17.03;15.60;;;15.20;99.90;;;;;;5056106;28;20893;-63
2023/09/27 01:15:07;;;;;;;17.27;15.77;;;15.20;99.90;;;;;;5051703;28;20493;-63
2023/09/27 01:17:37;;;;;;;17.63;16.23;;;15.20;99.90;;;;;;5052854;28;21005;-63
2023/09/27 01:20:06;;;;;;;17.37;15.97;;;15.20;99.90;;;;;;5057349;28;20591;-63
2023/09/27 01:22:35;;;;;;;17.10;15.60;;;15.20;99.90;;;;;;5055869;28;20504;-62
2023/09/27 01:25:08;;;;;;;17.10;15.53;;;15.20;99.90;;;;;;5052814;28;20896;-63
2023/09/27 01:27:37;;;;;;;15.60;14.30;;;15.20;99.90;;;;;;5053044;28;20473;-64
2023/09/27 01:30:06;;;;;;;15.43;14.20;;;15.10;99.90;;;;;;5055779;28;20531;-62
2023/09/27 01:32:36;;;;;;;15.10;14.00;;;15.10;99.90;;;;;;5052910;28;20891;-63
2023/09/27 01:35:06;;;;;;;16.33;15.03;;;15.10;99.90;;;;;;5051266;28;20500;-62
2023/09/27 01:37:34;;;;;;;16.07;14.80;;;15.00;99.90;;;;;;5052040;28;21327;-63
2023/09/27 01:40:09;;;;;;;17.37;15.83;;;15.00;99.90;;;;;;5056297;28;20522;-63
2023/09/27 01:42:42;;;;;;;17.40;15.90;;;15.00;99.90;;;;;;5051018;28;20978;-63
2023/09/27 01:45:12;;;;;;;17.20;15.80;;;15.00;99.90;;;;;;5047737;28;20517;-63
2023/09/27 01:47:40;;;;;;;17.00;15.60;;;14.90;99.90;;;;;;5053590;28;21037;-64
2023/09/27 01:50:09;;;;;;;16.83;15.47;;;14.90;99.90;;;;;;5052453;28;20477;-64
2023/09/27 01:52:38;;;;;;;16.70;15.23;;;14.90;99.90;;;;;;5049971;28;20469;-63
2023/09/27 01:55:08;;;;;;;17.83;16.43;;;14.90;99.90;;;;;;5044598;28;20514;-63
2023/09/27 01:57:36;;;;;;;17.50;16.10;;;14.90;99.90;;;;;;5050917;28;20489;-63
2023/09/27 02:00:08;;;;;;;17.77;16.27;;;14.80;99.90;;;;;;5052670;28;20478;-65
2023/09/27 02:02:36;;;;;;;16.67;15.37;;;14.80;99.90;;;;;;5054362;28;20501;-62
2023/09/27 02:05:05;;;;;;;16.37;14.97;;;14.80;99.90;;;;;;5049935;28;20493;-63
2023/09/27 02:07:33;;;;;;;16.93;15.43;;;14.80;99.90;;;;;;5052182;28;20539;-62
2023/09/27 02:10:02;;;;;;;16.03;14.73;;;14.80;99.90;;;;;;5055213;28;20481;-62
2023/09/27 02:12:31;;;;;;;16.30;15.00;;;14.80;99.90;;;;;;5052543;28;20470;-62
2023/09/27 02:15:01;;;;;;;16.10;14.80;;;14.70;99.90;;;;;;5048700;28;20522;-63
2023/09/27 02:17:29;;;;;;;15.40;14.20;;;14.70;99.90;;;;;;5052019;28;21131;-63
2023/09/27 02:19:57;;;;;;;16.80;15.50;;;14.60;99.90;;;;;;5051049;28;20483;-63
2023/09/27 02:22:25;;;;;;;15.70;14.40;;;14.60;99.90;;;;;;5059192;28;20743;-63
2023/09/27 02:24:54;;;;;;;16.60;15.30;;;14.60;99.90;;;;;;5055218;28;20485;-64
2023/09/27 02:27:21;;;;;;;16.77;15.37;;;14.50;99.90;;;;;;5056656;28;22150;-63
2023/09/27 02:29:51;;;;;;;16.53;15.10;;;14.60;99.90;;;;;;5055374;28;20470;-63
2023/09/27 02:32:19;;;;;;;17.13;15.73;;;14.50;99.90;;;;;;5050764;28;20557;-63
2023/09/27 02:34:47;;;;;;;16.53;14.93;;;14.50;99.90;;;;;;5048537;28;20498;-63
2023/09/27 02:37:16;;;;;;;17.57;16.17;;;14.40;99.90;;;;;;5049143;28;20480;-63
2023/09/27 02:39:44;;;;;;;16.27;14.97;;;14.40;99.90;;;;;;5051118;28;20473;-63
2023/09/27 02:42:13;;;;;;;16.87;15.40;;;14.40;99.90;;;;;;5051890;28;20466;-63
2023/09/27 02:44:41;;;;;;;16.47;15.03;;;14.30;99.90;;;;;;5050869;28;20955;-63
2023/09/27 02:47:10;;;;;;;16.60;15.20;;;14.30;99.90;;;;;;5049661;28;20558;-63
2023/09/27 02:49:38;;;;;;;16.60;15.20;;;14.30;99.90;;;;;;5055300;28;20469;-63
2023/09/27 02:52:07;;;;;;;16.50;15.20;;;14.30;99.90;;;;;;5054507;28;20476;-63
2023/09/27 02:54:35;;;;;;;17.00;15.60;;;14.20;99.90;;;;;;5058042;28;20526;-63
2023/09/27 02:57:03;;;;;;;17.57;15.97;;;14.10;99.90;;;;;;5052950;28;20560;-63
2023/09/27 02:59:32;;;;;;;16.93;15.43;;;14.10;99.90;;;;;;5049255;28;20516;-63
2023/09/27 03:02:01;;;;;;;17.40;15.90;;;14.10;99.90;;;;;;5050581;28;20902;-64
2023/09/27 03:04:32;;;;;;;16.97;15.57;;;14.10;99.90;;;;;;5050178;28;20485;-63
2023/09/27 03:07:00;;;;;;;16.67;15.27;;;14.00;99.90;;;;;;5048676;28;20850;-63
2023/09/27 03:09:28;;;;;;;17.50;16.03;;;14.00;99.90;;;;;;5049606;28;20539;-63
2023/09/27 03:11:56;;;;;;;15.50;14.10;;;14.00;99.90;;;;;;5047919;28;20475;-63
2023/09/27 03:14:24;;;;;;;16.13;14.83;;;13.90;99.90;;;;;;5047052;28;20572;-62
2023/09/27 03:16:52;;;;;;;16.00;14.70;;;13.90;99.90;;;;;;5050662;28;20999;-62
2023/09/27 03:19:22;;;;;;;16.87;15.50;;;13.90;99.90;;;;;;5051298;28;20493;-63
2023/09/27 03:21:52;;;;;;;16.60;15.17;;;13.80;99.90;;;;;;5050746;28;20500;-63
2023/09/27 03:24:20;;;;;;;16.00;14.80;;;13.80;99.90;;;;;;5048635;28;20486;-63
2023/09/27 03:26:48;;;;;;;16.10;14.80;;;13.80;99.90;;;;;;5050809;28;20574;-62
2023/09/27 03:29:16;;;;;;;16.03;14.73;;;13.80;99.90;;;;;;5057928;28;20564;-63
2023/09/27 03:31:44;;;;;;;16.07;14.77;;;13.80;99.90;;;;;;5058391;28;20556;-63
2023/09/27 03:34:12;;;;;;;15.13;13.73;;;13.70;99.90;;;;;;5055964;28;20493;-63
2023/09/27 03:36:40;;;;;;;15.40;14.13;;;13.70;99.90;;;;;;5059345;28;20580;-63
2023/09/27 03:39:09;;;;;;;15.87;14.33;;;13.70;99.90;;;;;;5057578;28;20949;-62
2023/09/27 03:41:38;;;;;;;16.00;14.70;;;13.70;99.90;;;;;;5056701;28;20475;-62
2023/09/27 03:44:07;;;;;;;14.93;13.73;;;13.70;99.90;;;;;;5051146;28;20560;-63
2023/09/27 03:46:35;;;;;;;15.27;13.87;;;13.70;99.90;;;;;;5046985;28;20528;-63
2023/09/27 03:49:03;;;;;;;15.17;13.90;;;13.60;99.90;;;;;;5054710;28;20469;-63
2023/09/27 03:51:31;;;;;;;15.73;14.43;;;13.60;99.90;;;;;;5050018;28;20848;-63
2023/09/27 03:53:59;;;;;;;14.30;13.17;;;13.60;99.90;;;;;;5051064;28;20974;-63
2023/09/27 03:56:29;;;;;;;15.57;14.30;;;13.50;99.90;;;;;;5049911;28;20486;-63
2023/09/27 03:58:58;;;;;;;15.00;13.80;;;13.50;99.90;;;;;;5047167;28;20492;-63
2023/09/27 04:01:26;;;;;;;15.10;13.90;;;13.50;99.90;;;;;;5047642;28;20474;-63
2023/09/27 04:03:54;;;;;;;16.10;14.80;;;13.50;99.90;;;;;;5049627;28;20477;-63
2023/09/27 04:06:22;;;;;;;16.00;14.63;;;13.50;99.90;;;;;;5050818;28;20632;-63
2023/09/27 04:08:50;;;;;;;15.03;13.70;;;13.50;99.90;;;;;;5050419;28;20498;-62
2023/09/27 04:11:18;;;;;;;15.80;14.40;;;13.40;99.90;;;;;;5050255;28;21137;-62
2023/09/27 04:13:48;;;;;;;14.10;12.90;;;13.40;99.90;;;;;;5055930;28;20519;-62
2023/09/27 04:16:17;;;;;;;15.10;13.80;;;13.40;99.90;;;;;;5051015;28;20588;-62
2023/09/27 04:18:45;;;;;;;16.60;15.07;;;13.40;99.90;;;;;;5047313;28;22331;-62
2023/09/27 04:21:13;;;;;;;15.73;14.43;;;13.40;99.90;;;;;;5055361;28;20553;-63
2023/09/27 04:23:43;;;;;;;15.40;14.10;;;13.30;99.90;;;;;;5057315;28;20480;-63
2023/09/27 04:26:11;;;;;;;15.03;13.63;;;13.30;99.90;;;;;;5061635;28;20486;-62
2023/09/27 04:28:39;;;;;;;15.20;14.00;;;13.30;99.90;;;;;;5060043;28;20482;-62
2023/09/27 04:31:09;;;;;;;15.33;14.03;;;13.30;99.90;;;;;;5057365;28;20552;-62
2023/09/27 04:33:40;;;;;;;16.47;15.17;;;13.30;99.90;;;;;;5058601;28;20539;-62
2023/09/27 04:36:14;;;;;;;14.60;13.40;;;13.20;99.90;;;;;;5054577;28;20594;-62
2023/09/27 04:38:44;;;;;;;15.77;14.37;;;13.20;99.90;;;;;;5058507;28;20488;-63
2023/09/27 04:41:14;;;;;;;15.20;13.90;;;13.20;99.90;;;;;;5052813;28;20564;-62
2023/09/27 04:43:42;;;;;;;15.67;14.37;;;13.20;99.90;;;;;;5055546;28;20497;-62
2023/09/27 04:46:14;;;;;;;15.30;14.00;;;13.10;99.90;;;;;;5048349;28;20496;-62
2023/09/27 04:48:42;;;;;;;15.57;14.27;;;13.10;99.90;;;;;;5037873;28;20500;-62
2023/09/27 04:51:10;;;;;;;15.17;13.87;;;13.10;99.90;;;;;;5045641;28;20511;-63
2023/09/27 04:53:39;;;;;;;14.33;13.13;;;13.00;99.90;;;;;;5046023;28;20593;-64
2023/09/27 04:56:11;;;;;;;16.93;13.70;;;13.00;99.90;;;;;;5045227;28;20654;-63
2023/09/27 04:58:41;;;;;;;15.00;13.80;;;13.00;99.90;;;;;;5042133;28;21802;-63
2023/09/27 05:01:09;;;;;;;14.63;13.43;;;13.00;99.90;;;;;;5051181;28;21084;-62
2023/09/27 05:03:39;;;;;;;15.07;13.87;;;13.00;99.90;;;;;;5049790;28;20477;-62
2023/09/27 05:06:07;;;;;;;15.90;14.40;;;13.00;99.90;;;;;;5046979;28;20544;-62
2023/09/27 05:08:35;;;;;;;16.00;14.60;;;12.90;99.90;;;;;;5051167;28;20571;-63
2023/09/27 05:11:03;;;;;;;15.30;13.97;;;13.00;99.90;;;;;;5056853;28;20465;-63
2023/09/27 05:13:32;;;;;;;16.00;14.70;;;12.90;99.90;;;;;;5047327;28;20488;-62
2023/09/27 05:16:00;;;;;;;16.70;15.30;;;12.90;99.90;;;;;;5053306;28;20514;-63
2023/09/27 05:18:28;;;;;;;16.50;15.20;;;12.90;99.90;;;;;;5046197;28;20469;-63
2023/09/27 05:20:59;;;;;;;16.03;14.63;;;12.80;99.90;;;;;;5052678;28;21040;-63
2023/09/27 05:23:27;;;;;;;15.53;14.20;;;12.80;99.90;;;;;;5057264;28;20551;-64
2023/09/27 05:25:56;;;;;;;16.60;15.17;;;12.90;99.90;;;;;;5051284;28;20497;-64
2023/09/27 05:28:24;;;;;;;16.70;15.30;;;12.80;99.90;;;;;;5046942;28;21158;-64
2023/09/27 05:30:52;;;;;;;15.53;14.23;;;12.80;99.90;;;;;;5049730;28;20493;-63
2023/09/27 05:33:21;;;;;;;16.20;14.80;;;12.80;99.90;;;;;;5045505;28;20564;-63
2023/09/27 05:35:50;;;;;;;15.13;13.90;;;12.80;99.90;;;;;;5046503;28;21506;-63
2023/09/27 05:38:20;;;;;;;15.03;13.83;;;12.80;99.90;;;;;;5043960;28;20495;-64
2023/09/27 05:40:48;;;;;;;16.97;15.60;;;12.90;99.90;;;;;;5047394;28;20586;-63
2023/09/27 05:43:17;;;;;;;16.87;15.27;;;12.90;99.90;;;;;;5046011;28;20477;-64
2023/09/27 05:45:45;;;;;;;16.43;14.83;;;12.90;99.90;;;;;;5041785;28;20508;-65
2023/09/27 05:48:14;;;;;;;16.17;14.80;;;12.90;99.90;;;;;;5034499;28;20475;-63
2023/09/27 05:50:44;;;;;;;17.13;15.43;;;12.90;99.90;;;;;;5021834;28;21009;-64
2023/09/27 05:53:12;;;;;;;16.27;14.63;;;12.90;99.90;;;;;;5036564;28;20469;-63
2023/09/27 05:55:42;;;;;;;16.63;15.03;;;12.90;99.90;;;;;;5040364;28;20855;-63
2023/09/27 05:58:10;;;;;;;16.60;15.20;;;12.90;99.90;;;;;;5041893;28;20484;-63
2023/09/27 06:00:46;;;;;;;17.80;16.20;;;12.90;99.90;;;;;;5043210;28;20576;-63
2023/09/27 06:03:14;;;;;;;18.73;17.07;;;13.00;99.90;;;;;;5038868;28;20462;-63
2023/09/27 06:05:42;;;;;;;18.37;16.47;;;13.10;99.90;;;;;;5037508;28;21002;-63
2023/09/27 06:08:10;;;;;;;19.30;16.90;;;13.20;99.90;;;;;;5046403;28;20551;-64
2023/09/27 06:10:38;;;;;;;20.20;18.43;;;13.20;99.90;;;;;;5045028;28;20465;-63
2023/09/27 06:13:08;;;;;;;19.90;17.90;;;13.30;99.90;;;;;;5054971;28;20579;-63
2023/09/27 06:15:36;;;;;;;19.73;17.83;;;13.40;99.90;;;;;;5052030;28;20494;-64
2023/09/27 06:18:04;;;;;;;19.00;17.40;;;13.50;99.90;;;;;;5048668;28;20462;-63
2023/09/27 06:20:33;;;;;;;18.53;16.93;;;13.50;99.90;;;;;;5038125;28;20493;-63
2023/09/27 06:23:03;;;;;;;19.20;17.30;;;13.60;99.90;;;;;;5044165;28;20457;-63
2023/09/27 06:25:34;;;;;;;19.80;17.90;;;13.60;99.90;;;;;;5042646;28;20563;-63
2023/09/27 06:28:03;;;;;;;17.37;15.70;;;13.60;99.90;;;;;;5036464;28;21508;-63
2023/09/27 06:30:32;;;;;;;18.70;17.10;;;13.70;99.90;;;;;;5044155;28;20853;-63
2023/09/27 06:33:00;;;;;;;18.13;16.63;;;13.70;99.90;;;;;;5047454;28;20473;-63
2023/09/27 06:35:31;;;;;;;20.30;18.50;;;13.70;99.90;;;;;;5045050;28;20494;-63
2023/09/27 06:38:01;;;;;;;18.83;16.93;;;13.80;99.90;;;;;;5048511;28;20561;-63
2023/09/27 06:40:29;;;;;;;17.83;16.17;;;13.80;99.90;;;;;;5047095;28;20924;-63
2023/09/27 06:42:57;;;;;;;18.77;17.17;;;13.90;99.90;;;;;;5048738;28;20497;-64
2023/09/27 06:45:26;;;;;;;18.33;16.63;;;13.90;99.90;;;;;;5055583;28;20617;-63
2023/09/27 06:47:56;;;;;;;19.20;17.50;;;13.90;99.90;;;;;;5057318;28;20465;-63
2023/09/27 06:50:24;;;;;;;18.50;16.80;;;14.00;99.90;;;;;;5056296;28;20466;-63
2023/09/27 06:52:53;;;;;;;17.70;16.03;;;14.10;99.90;;;;;;5053297;28;20478;-64
2023/09/27 06:55:41;;;;;;;18.50;16.77;;;14.10;99.90;;;;;;5054506;28;20489;-63
2023/09/27 06:58:09;;;;;;;18.70;17.00;;;14.20;99.90;;;;;;5055228;28;20501;-64
2023/09/27 07:00:40;;;;;;;18.00;16.50;;;14.20;99.90;;;;;;5051791;28;20501;-64
2023/09/27 07:03:10;;;;;;;18.13;16.53;;;14.20;99.90;;;;;;5051091;28;20512;-63
2023/09/27 07:05:38;;;;;;;18.13;16.50;;;14.30;99.90;;;;;;5057534;28;20497;-64
2023/09/27 07:08:06;;;;;;;17.50;15.90;;;14.30;99.90;;;;;;5055275;28;20877;-63
2023/09/27 07:10:34;;;;;;;16.73;15.33;;;14.40;99.90;;;;;;5046809;28;20473;-63
2023/09/27 07:13:02;;;;;;;17.47;16.07;;;14.50;99.90;;;;;;5046702;28;20674;-63
2023/09/27 07:15:32;;;;;;;17.50;16.00;;;14.50;99.90;;;;;;5048203;28;20498;-63
2023/09/27 07:18:00;;;;;;;17.23;15.73;;;14.60;99.90;;;;;;5043343;28;20557;-63
2023/09/27 07:20:33;;;;;;;17.67;16.17;;;14.60;99.90;;;;;;5056138;28;20500;-64
2023/09/27 07:23:03;;;;;;;17.80;16.30;;;14.70;99.90;;;;;;5055426;28;20498;-64
2023/09/27 07:25:34;;;;;;;18.07;16.50;;;14.80;99.90;;;;;;5050973;28;20548;-64
2023/09/27 07:28:04;;;;;;;17.93;16.43;;;14.90;99.90;;;;;;5055615;28;20480;-64
2023/09/27 07:30:34;;;;;;;18.70;17.10;;;14.90;99.90;;;;;;5051627;28;20470;-64
2023/09/27 07:33:08;;;;;;;17.53;15.93;;;15.00;99.90;;;;;;5048430;28;20477;-65
2023/09/27 07:35:42;;;;;;;19.63;16.03;;;15.10;99.90;;;;;;5054507;28;21116;-64
2023/09/27 07:38:10;;;;;;;17.50;15.83;;;15.10;99.90;;;;;;5057312;28;20476;-64
2023/09/27 07:40:39;;;;;;;18.07;16.30;;;15.20;99.90;;;;;;5056683;28;21036;-64
2023/09/27 07:43:07;;;;;;;18.10;16.53;;;15.30;99.90;;;;;;5055390;28;20844;-64
2023/09/27 07:45:38;;;;;;;17.87;16.17;;;15.30;99.90;;;;;;5051764;28;20521;-65
2023/09/27 07:48:06;;;;;;;19.00;17.30;;;15.40;99.90;;;;;;5051523;28;20863;-64
2023/09/27 07:50:38;;;;;;;17.23;15.73;;;15.50;99.90;;;;;;5052005;28;20523;-64
2023/09/27 07:53:08;;;;;;;17.00;15.50;;;15.60;99.90;;;;;;5048460;28;20979;-65
2023/09/27 07:55:46;;;;;;;17.50;16.00;;;15.70;99.90;;;;;;5054917;28;21194;-64
2023/09/27 07:58:14;;;;;;;18.87;17.27;;;15.70;99.90;;;;;;5053011;28;20480;-64
2023/09/27 08:00:43;;;;;;;17.30;15.73;;;15.80;99.90;;;;;;5054702;28;21063;-65
2023/09/27 08:06:52;;;;;;;17.97;16.27;;;15.90;99.90;;;;;;5001264;28;20482;-64
2023/09/27 08:09:22;;;;;;;17.93;16.33;;;16.00;99.90;;;;;;5014520;28;20564;-65
2023/09/27 08:12:07;;;;;;;16.47;14.97;;;16.10;99.90;;;;;;5012801;28;20491;-64
2023/09/27 08:14:36;;;;;;;16.80;15.17;;;16.10;99.90;;;;;;5011592;28;20588;-64
2023/09/27 08:17:04;;;;;;;15.17;13.87;;;16.20;99.90;;;;;;5014291;28;21488;-64
2023/09/27 08:19:33;;;;;;;17.13;15.57;;;16.30;99.90;;;;;;5002765;28;20467;-65
2023/09/27 08:22:02;;;;;;;16.40;14.87;;;16.40;99.90;;;;;;5007985;28;20578;-65
2023/09/27 08:24:30;;;;;;;16.17;14.47;;;16.40;99.90;;;;;;5012467;28;20498;-64
2023/09/27 08:27:00;;;;;;;15.20;13.77;;;16.60;99.90;;;;;;5010940;28;20471;-66
2023/09/27 08:29:28;;;;;;;13.40;12.30;;;16.70;99.90;;;;;;5011436;28;20475;-64
2023/09/27 08:31:56;;;;;;;15.43;14.03;;;16.70;99.90;;;;;;4998753;28;20501;-64
2023/09/27 08:34:25;;;;;;;14.27;13.00;;;16.80;99.90;;;;;;5006101;28;20503;-64
2023/09/27 08:36:53;;;;;;;13.33;12.07;;;16.90;99.90;;;;;;5008610;28;20515;-63
2023/09/27 08:39:22;;;;;;;13.97;12.77;;;17.00;99.90;;;;;;4994102;28;20471;-62
2023/09/27 08:41:50;;;;;;;15.23;13.33;;;17.20;99.90;;;;;;5052920;28;20490;-63
2023/09/27 08:44:19;;;;;;;13.63;12.40;;;17.30;99.90;;;;;;5046993;28;20497;-63
2023/09/27 08:46:47;;;;;;;12.13;11.13;;;17.40;99.90;;;;;;5051926;28;20474;-63
2023/09/27 08:49:17;;;;;;;14.83;13.33;;;17.50;99.90;;;;;;5044414;28;20565;-63
2023/09/27 08:51:46;;;;;;;13.13;11.87;;;17.70;99.90;;;;;;5054742;28;20569;-62
2023/09/27 08:54:16;;;;;;;13.47;12.27;;;17.80;99.90;;;;;;5053755;28;21148;-63
2023/09/27 08:56:48;;;;;;;14.40;12.00;;;17.90;99.90;;;;;;5054814;28;20865;-63
2023/09/27 08:59:16;;;;;;;12.13;11.20;;;18.10;99.90;;;;;;5058122;28;20904;-62
2023/09/27 09:01:45;;;;;;;13.40;12.10;;;18.20;99.90;;;;;;5056957;28;20496;-63
2023/09/27 09:04:13;;;;;;;13.77;12.57;;;18.30;99.90;;;;;;5052906;28;20500;-65
2023/09/27 09:06:42;;;;;;;12.60;11.50;;;18.40;99.90;;;;;;5046312;28;20573;-64
2023/09/27 09:09:11;;;;;;;13.00;11.80;;;18.50;99.90;;;;;;5051151;28;20481;-64
2023/09/27 09:11:47;;;;;;;13.10;11.83;;;18.60;99.90;;;;;;5049114;28;20470;-64
2023/09/27 09:14:18;;;;;;;12.27;11.13;;;18.70;99.90;;;;;;5059170;28;20485;-65
2023/09/27 09:16:52;;;;;;;12.67;11.47;;;18.80;99.90;;;;;;5054979;28;20786;-64
2023/09/27 09:19:23;;;;;;;11.87;10.87;;;19.00;99.90;;;;;;5055457;28;20925;-64
2023/09/27 09:21:59;;;;;;;12.30;11.20;;;19.10;99.90;;;;;;5052987;28;20621;-65
2023/09/27 09:24:27;;;;;;;10.97;10.07;;;19.20;99.90;;;;;;5048752;28;20493;-65
2023/09/27 09:27:07;;;;;;;10.77;9.93;;;19.30;99.90;;;;;;5028829;28;20572;-65
2023/09/27 09:29:50;;;;;;;10.40;9.47;;;19.40;99.90;;;;;;5050101;28;20615;-64
2023/09/27 09:32:19;;;;;;;10.87;9.93;;;19.50;99.90;;;;;;5051302;28;21038;-65
2023/09/27 09:34:48;;;;;;;13.33;10.47;;;19.60;99.90;;;;;;5054512;28;20576;-64
2023/09/27 09:37:21;;;;;;;12.33;11.10;;;19.70;99.90;;;;;;5054376;28;20474;-65
2023/09/27 09:39:50;;;;;;;12.00;10.73;;;19.80;99.90;;;;;;5057551;28;20477;-64
2023/09/27 09:42:32;;;;;;;10.10;9.20;;;19.90;99.90;;;;;;5058019;28;21040;-64
2023/09/27 09:45:06;;;;;;;9.77;8.97;;;20.00;99.90;;;;;;5051938;28;20975;-65
2023/09/27 09:47:35;;;;;;;11.77;10.70;;;20.00;99.90;;;;;;5048397;28;20535;-65
2023/09/27 09:50:09;;;;;;;9.33;8.43;;;20.20;99.90;;;;;;5054176;28;20602;-64
2023/09/27 09:52:40;;;;;;;9.00;8.20;;;20.30;99.90;;;;;;5055782;28;21132;-65
2023/09/27 09:55:10;;;;;;;8.63;7.77;;;20.40;99.90;;;;;;5058298;28;20562;-65
2023/09/27 09:57:59;;;;;;;9.30;8.50;;;20.50;99.90;;;;;;5053662;28;21117;-65
2023/09/27 10:00:30;;;;;;;8.73;8.10;;;20.60;99.90;;;;;;5046728;28;20483;-65
2023/09/27 10:03:01;;;;;;;10.03;8.27;;;20.60;99.90;;;;;;5046371;28;20486;-65
2023/09/27 10:05:36;;;;;;;8.73;7.97;;;20.70;99.90;;;;;;5044575;28;20490;-65
2023/09/27 10:08:04;;;;;;;8.50;7.80;;;20.80;99.90;;;;;;5056311;28;20496;-65
2023/09/27 10:10:33;;;;;;;7.20;6.60;;;20.90;99.90;;;;;;5054007;28;20470;-65
2023/09/27 10:13:05;;;;;;;7.03;6.43;;;21.10;99.90;;;;;;5054374;28;20551;-64
2023/09/27 10:15:35;;;;;;;7.10;6.40;;;21.10;99.90;;;;;;5052865;28;20486;-65
2023/09/27 10:18:33;;;;;;;6.50;5.83;;;21.10;99.90;;;;;;5053891;28;20920;-65
2023/09/27 10:21:06;;;;;;;6.40;5.83;;;21.20;99.90;;;;;;5057364;28;20477;-65
2023/09/27 10:23:58;;;;;;;6.87;6.23;;;21.30;99.90;;;;;;5053161;28;20490;-65
2023/09/27 10:26:35;;;;;;;6.47;5.97;;;21.30;99.90;;;;;;5051026;28;20487;-65
2023/09/27 10:29:12;;;;;;;6.83;5.40;;;21.40;99.90;;;;;;5053095;28;20545;-65
2023/09/27 10:32:20;;;;;;;5.80;5.20;;;21.40;99.90;;;;;;5049404;28;20465;-64
2023/09/27 10:34:51;;;;;;;6.43;5.37;;;21.50;99.90;;;;;;5053726;28;20504;-63
2023/09/27 10:37:59;;;;;;;6.73;5.70;;;21.60;99.90;;;;;;5050640;28;20472;-64
2023/09/27 10:40:27;;;;;;;6.50;5.90;;;21.70;99.90;;;;;;5041475;28;20912;-64
2023/09/27 10:42:56;;;;;;;7.40;6.30;;;21.70;99.90;;;;;;5059377;28;20567;-62
2023/09/27 10:45:24;;;;;;;6.47;5.97;;;21.70;99.90;;;;;;5053149;28;21116;-63
2023/09/27 10:47:54;;;;;;;7.10;6.50;;;21.70;99.90;;;;;;5057740;28;20550;-62
2023/09/27 10:50:30;;;;;;;6.30;5.70;;;21.80;99.90;;;;;;5058521;28;20973;-63
2023/09/27 10:53:00;;;;;;;6.83;6.20;;;21.80;99.90;;;;;;5047834;28;20549;-63
2023/09/27 10:55:38;;;;;;;8.80;6.33;;;21.80;99.90;;;;;;5055858;28;20568;-63
2023/09/27 10:58:06;;;;;;;6.77;6.10;;;21.80;99.90;;;;;;5060428;28;20523;-63
2023/09/27 11:00:34;;;;;;;6.70;6.10;;;21.90;99.90;;;;;;5049965;28;20980;-63
2023/09/27 11:03:16;;;;;;;7.10;6.50;;;21.90;99.90;;;;;;5051069;28;20789;-61
2023/09/27 11:05:46;;;;;;;7.00;6.50;;;22.00;99.90;;;;;;5053502;28;20626;-65
2023/09/27 11:08:20;;;;;;;7.30;6.70;;;22.00;99.90;;;;;;5044862;28;20836;-65
2023/09/27 11:10:50;;;;;;;10.47;6.80;;;22.10;99.90;;;;;;5054038;28;20899;-65
2023/09/27 11:13:18;;;;;;;6.93;6.43;;;22.10;99.90;;;;;;5055112;28;20663;-65
2023/09/27 11:15:46;;;;;;;7.20;6.50;;;22.20;99.90;;;;;;5051910;28;20580;-65
2023/09/27 11:18:14;;;;;;;7.10;5.80;;;22.30;99.90;;;;;;5052037;28;21026;-64
2023/09/27 11:20:43;;;;;;;7.27;6.70;;;22.40;99.90;;;;;;5044985;28;20477;-63
2023/09/27 11:23:12;;;;;;;7.27;6.60;;;22.50;99.90;;;;;;5048993;28;21068;-63
2023/09/27 11:25:41;;;;;;;7.87;7.20;;;22.50;99.90;;;;;;5052981;28;20493;-64
2023/09/27 11:28:17;;;;;;;7.43;6.73;;;22.60;99.90;;;;;;5047016;28;20466;-64
2023/09/27 11:30:45;;;;;;;7.47;6.83;;;22.80;99.90;;;;;;5050546;28;20834;-67
2023/09/27 11:33:16;;;;;;;7.40;6.73;;;22.90;99.90;;;;;;5048248;28;20507;-66
2023/09/27 11:35:49;;;;;;;6.57;6.07;;;23.10;99.90;;;;;;5042707;28;20501;-66
2023/09/27 11:38:19;;;;;;;8.27;7.03;;;23.40;99.90;;;;;;5051873;28;20478;-66
2023/09/27 11:40:48;;;;;;;7.53;6.40;;;23.60;99.90;;;;;;5042233;28;20473;-67
2023/09/27 11:43:17;;;;;;;8.00;7.03;;;23.80;99.90;;;;;;5044383;28;20485;-67
2023/09/27 11:45:47;;;;;;;8.67;6.20;;;24.00;99.90;;;;;;5049086;28;20500;-67
2023/09/27 11:48:17;;;;;;;8.53;7.70;;;24.10;99.90;;;;;;5049493;28;20477;-67
2023/09/27 11:50:45;;;;;;;7.10;6.50;;;24.20;99.90;;;;;;5049164;28;20473;-68
2023/09/27 11:53:14;;;;;;;6.40;5.90;;;24.30;99.90;;;;;;5047136;28;20471;-68
2023/09/27 11:55:44;;;;;;;7.83;7.23;;;24.40;99.90;;;;;;5048230;28;20986;-68
2023/09/27 11:58:12;;;;;;;6.20;5.70;;;24.40;99.90;;;;;;5050587;28;20535;-67
2023/09/27 12:00:40;;;;;;;7.27;6.57;;;24.50;99.90;;;;;;5045083;28;20545;-67
2023/09/27 12:03:10;;;;;;;8.40;7.47;;;24.60;99.90;;;;;;5045325;28;20536;-69
2023/09/27 12:05:39;;;;;;;6.40;5.90;;;24.80;99.90;;;;;;5050070;28;20499;-69
2023/09/27 12:08:08;;;;;;;7.60;6.90;;;24.80;99.90;;;;;;5047674;28;20477;-69
2023/09/27 12:10:36;;;;;;;6.20;5.70;;;25.00;99.90;;;;;;5048250;28;20470;-69
2023/09/27 12:13:06;;;;;;;6.70;6.00;;;25.10;99.90;;;;;;5047972;28;20465;-68
2023/09/27 12:15:34;;;;;;;6.70;6.20;;;25.20;99.90;;;;;;5044516;28;20579;-72
2023/09/27 12:18:02;;;;;;;9.63;6.40;;;25.30;99.90;;;;;;5048925;28;20499;-70
2023/09/27 12:20:31;;;;;;;7.87;6.80;;;25.30;99.90;;;;;;5048537;28;20561;-68
2023/09/27 12:23:09;;;;;;;6.93;5.97;;;25.40;99.90;;;;;;5049528;28;20976;-73
2023/09/27 12:25:38;;;;;;;6.77;6.27;;;25.60;99.90;;;;;;5049511;28;20527;-68
2023/09/27 12:28:08;;;;;;;7.97;6.03;;;26.00;99.90;;;;;;5045163;28;20529;-70
2023/09/27 12:30:37;;;;;;;5.97;5.40;;;26.30;99.90;;;;;;5050014;28;20477;-69
2023/09/27 12:33:05;;;;;;;7.00;5.20;;;27.00;99.90;;;;;;5050305;28;21032;-66
2023/09/27 12:35:33;;;;;;;5.80;5.30;;;28.20;99.90;;;;;;5044490;28;20719;-67
2023/09/27 12:38:04;;;;;;;7.00;6.40;;;29.50;99.90;;;;;;5043596;28;20474;-69
2023/09/27 12:40:33;;;;;;;6.03;5.53;;;30.70;90.60;;;;;;5051726;28;20507;-70
2023/09/27 12:43:01;;;;;;;6.60;5.80;;;31.90;81.80;;;;;;5054430;28;20535;-69
2023/09/27 12:45:30;;;;;;;7.90;6.40;;;32.20;70.10;;;;;;5052172;28;20555;-70
2023/09/27 12:47:58;;;;;;;6.73;6.10;;;31.90;65.60;;;;;;5053898;28;21854;-69